sensor_id;sensor_type;location;lat;lon;timestamp;P1;durP1;ratioP1;P2;durP2;ratioP2
32501;SDS011;18952;52.516;13.460;2022-08-19T00:01:43;13.48;;;12.07;;
32501;SDS011;18952;52.516;13.460;2022-08-19T00:04:20;13.23;;;12.02;;
32501;SDS011;18952;52.516;13.460;2022-08-19T00:06:49;14.35;;;12.98;;
32501;SDS011;18952;52.516;13.460;2022-08-19T00:09:17;13.95;;;12.30;;
32501;SDS011;18952;52.516;13.460;2022-08-19T00:11:46;15.63;;;13.15;;
32501;SDS011;18952;52.516;13.460;2022-08-19T00:14:13;14.77;;;13.38;;
32501;SDS011;18952;52.516;13.460;2022-08-19T00:16:42;16.20;;;13.00;;
32501;SDS011;18952;52.516;13.460;2022-08-19T00:19:10;15.15;;;13.60;;
32501;SDS011;18952;52.516;13.460;2022-08-19T00:21:37;16.20;;;14.70;;
32501;SDS011;18952;52.516;13.460;2022-08-19T00:24:05;15.05;;;13.73;;
32501;SDS011;18952;52.516;13.460;2022-08-19T00:26:33;15.40;;;13.95;;
32501;SDS011;18952;52.516;13.460;2022-08-19T00:29:01;15.82;;;14.52;;
32501;SDS011;18952;52.516;13.460;2022-08-19T00:31:28;16.15;;;14.65;;
32501;SDS011;18952;52.516;13.460;2022-08-19T00:33:55;16.17;;;14.68;;
32501;SDS011;18952;52.516;13.460;2022-08-19T00:36:22;18.65;;;15.27;;
32501;SDS011;18952;52.516;13.460;2022-08-19T00:38:49;16.55;;;15.05;;
32501;SDS011;18952;52.516;13.460;2022-08-19T00:41:17;15.80;;;14.40;;
32501;SDS011;18952;52.516;13.460;2022-08-19T00:43:56;17.02;;;15.38;;
32501;SDS011;18952;52.516;13.460;2022-08-19T00:46:25;19.92;;;16.65;;
32501;SDS011;18952;52.516;13.460;2022-08-19T00:48:52;52.42;;;21.38;;
32501;SDS011;18952;52.516;13.460;2022-08-19T00:51:20;100.47;;;27.38;;
32501;SDS011;18952;52.516;13.460;2022-08-19T00:53:47;63.90;;;34.00;;
32501;SDS011;18952;52.516;13.460;2022-08-19T00:56:13;33.58;;;29.65;;
32501;SDS011;18952;52.516;13.460;2022-08-19T00:58:40;40.63;;;35.25;;
32501;SDS011;18952;52.516;13.460;2022-08-19T01:01:07;40.03;;;33.97;;
32501;SDS011;18952;52.516;13.460;2022-08-19T01:03:37;45.95;;;38.00;;
32501;SDS011;18952;52.516;13.460;2022-08-19T01:06:23;44.13;;;38.47;;
32501;SDS011;18952;52.516;13.460;2022-08-19T01:08:51;43.30;;;38.10;;
32501;SDS011;18952;52.516;13.460;2022-08-19T01:11:18;50.97;;;39.97;;
32501;SDS011;18952;52.516;13.460;2022-08-19T01:13:45;45.58;;;38.50;;
32501;SDS011;18952;52.516;13.460;2022-08-19T01:16:15;46.28;;;41.35;;
32501;SDS011;18952;52.516;13.460;2022-08-19T01:18:45;58.08;;;43.55;;
32501;SDS011;18952;52.516;13.460;2022-08-19T01:21:18;54.42;;;43.67;;
32501;SDS011;18952;52.516;13.460;2022-08-19T01:23:50;53.13;;;42.78;;
32501;SDS011;18952;52.516;13.460;2022-08-19T01:26:21;44.85;;;40.00;;
32501;SDS011;18952;52.516;13.460;2022-08-19T01:28:51;36.08;;;32.53;;
32501;SDS011;18952;52.516;13.460;2022-08-19T01:31:27;42.67;;;36.78;;
32501;SDS011;18952;52.516;13.460;2022-08-19T01:33:58;60.55;;;47.55;;
32501;SDS011;18952;52.516;13.460;2022-08-19T01:36:36;63.30;;;44.05;;
32501;SDS011;18952;52.516;13.460;2022-08-19T01:39:10;88.95;;;47.42;;
32501;SDS011;18952;52.516;13.460;2022-08-19T01:41:38;53.97;;;37.95;;
32501;SDS011;18952;52.516;13.460;2022-08-19T01:44:06;73.82;;;44.00;;
32501;SDS011;18952;52.516;13.460;2022-08-19T01:46:44;79.40;;;51.28;;
32501;SDS011;18952;52.516;13.460;2022-08-19T01:49:12;67.22;;;46.30;;
32501;SDS011;18952;52.516;13.460;2022-08-19T01:51:39;48.38;;;41.50;;
32501;SDS011;18952;52.516;13.460;2022-08-19T01:54:09;51.58;;;43.63;;
32501;SDS011;18952;52.516;13.460;2022-08-19T01:56:38;81.95;;;48.67;;
32501;SDS011;18952;52.516;13.460;2022-08-19T01:59:06;98.93;;;51.92;;
32501;SDS011;18952;52.516;13.460;2022-08-19T02:01:37;94.13;;;45.83;;
32501;SDS011;18952;52.516;13.460;2022-08-19T02:04:03;54.38;;;34.83;;
32501;SDS011;18952;52.516;13.460;2022-08-19T02:06:30;38.38;;;30.90;;
32501;SDS011;18952;52.516;13.460;2022-08-19T02:08:57;34.38;;;30.67;;
32501;SDS011;18952;52.516;13.460;2022-08-19T02:11:26;39.45;;;33.08;;
32501;SDS011;18952;52.516;13.460;2022-08-19T02:13:54;44.88;;;40.05;;
32501;SDS011;18952;52.516;13.460;2022-08-19T02:16:21;38.38;;;34.38;;
32501;SDS011;18952;52.516;13.460;2022-08-19T02:18:48;37.33;;;33.58;;
32501;SDS011;18952;52.516;13.460;2022-08-19T02:21:16;41.55;;;36.15;;
32501;SDS011;18952;52.516;13.460;2022-08-19T02:23:45;36.17;;;32.67;;
32501;SDS011;18952;52.516;13.460;2022-08-19T02:26:13;36.05;;;32.30;;
32501;SDS011;18952;52.516;13.460;2022-08-19T02:28:40;34.25;;;30.77;;
32501;SDS011;18952;52.516;13.460;2022-08-19T02:31:11;29.10;;;26.23;;
32501;SDS011;18952;52.516;13.460;2022-08-19T02:33:40;32.42;;;29.27;;
32501;SDS011;18952;52.516;13.460;2022-08-19T02:36:08;28.13;;;25.42;;
32501;SDS011;18952;52.516;13.460;2022-08-19T02:38:37;42.00;;;37.03;;
32501;SDS011;18952;52.516;13.460;2022-08-19T02:41:06;37.38;;;33.03;;
32501;SDS011;18952;52.516;13.460;2022-08-19T02:43:37;49.42;;;42.05;;
32501;SDS011;18952;52.516;13.460;2022-08-19T02:46:14;41.38;;;36.88;;
32501;SDS011;18952;52.516;13.460;2022-08-19T02:48:43;40.42;;;35.92;;
32501;SDS011;18952;52.516;13.460;2022-08-19T02:51:14;42.78;;;38.17;;
32501;SDS011;18952;52.516;13.460;2022-08-19T02:53:43;39.50;;;35.47;;
32501;SDS011;18952;52.516;13.460;2022-08-19T02:56:10;42.45;;;37.90;;
32501;SDS011;18952;52.516;13.460;2022-08-19T02:58:36;39.75;;;35.45;;
32501;SDS011;18952;52.516;13.460;2022-08-19T03:01:03;41.72;;;37.17;;
32501;SDS011;18952;52.516;13.460;2022-08-19T03:03:30;36.78;;;33.00;;
32501;SDS011;18952;52.516;13.460;2022-08-19T03:06:03;38.38;;;34.40;;
32501;SDS011;18952;52.516;13.460;2022-08-19T03:08:30;37.08;;;33.53;;
32501;SDS011;18952;52.516;13.460;2022-08-19T03:10:57;36.75;;;32.92;;
32501;SDS011;18952;52.516;13.460;2022-08-19T03:13:24;36.88;;;33.08;;
32501;SDS011;18952;52.516;13.460;2022-08-19T03:15:50;32.03;;;29.00;;
32501;SDS011;18952;52.516;13.460;2022-08-19T03:18:17;39.08;;;34.35;;
32501;SDS011;18952;52.516;13.460;2022-08-19T03:20:45;35.53;;;31.75;;
32501;SDS011;18952;52.516;13.460;2022-08-19T03:23:14;36.33;;;32.75;;
32501;SDS011;18952;52.516;13.460;2022-08-19T03:25:42;35.47;;;31.98;;
32501;SDS011;18952;52.516;13.460;2022-08-19T03:28:23;30.65;;;27.70;;
32501;SDS011;18952;52.516;13.460;2022-08-19T03:31:08;30.25;;;27.45;;
32501;SDS011;18952;52.516;13.460;2022-08-19T03:33:58;31.70;;;28.20;;
32501;SDS011;18952;52.516;13.460;2022-08-19T03:36:25;28.15;;;25.30;;
32501;SDS011;18952;52.516;13.460;2022-08-19T03:38:55;28.13;;;25.42;;
32501;SDS011;18952;52.516;13.460;2022-08-19T03:41:29;24.38;;;22.17;;
32501;SDS011;18952;52.516;13.460;2022-08-19T03:44:08;28.98;;;25.75;;
32501;SDS011;18952;52.516;13.460;2022-08-19T03:46:42;26.67;;;23.92;;
32501;SDS011;18952;52.516;13.460;2022-08-19T03:49:09;24.23;;;21.83;;
32501;SDS011;18952;52.516;13.460;2022-08-19T03:51:39;24.15;;;21.80;;
32501;SDS011;18952;52.516;13.460;2022-08-19T03:54:08;28.67;;;22.98;;
32501;SDS011;18952;52.516;13.460;2022-08-19T03:56:38;23.80;;;21.60;;
32501;SDS011;18952;52.516;13.460;2022-08-19T03:59:06;25.23;;;22.83;;
32501;SDS011;18952;52.516;13.460;2022-08-19T04:01:37;24.17;;;21.77;;
32501;SDS011;18952;52.516;13.460;2022-08-19T04:04:04;23.58;;;21.38;;
32501;SDS011;18952;52.516;13.460;2022-08-19T04:06:33;24.23;;;21.75;;
32501;SDS011;18952;52.516;13.460;2022-08-19T04:09:06;23.42;;;21.17;;
32501;SDS011;18952;52.516;13.460;2022-08-19T04:11:37;22.95;;;20.75;;
32501;SDS011;18952;52.516;13.460;2022-08-19T04:14:13;23.70;;;21.30;;
32501;SDS011;18952;52.516;13.460;2022-08-19T04:16:42;23.00;;;20.77;;
32501;SDS011;18952;52.516;13.460;2022-08-19T04:19:10;24.05;;;21.75;;
32501;SDS011;18952;52.516;13.460;2022-08-19T04:21:37;23.08;;;20.77;;
32501;SDS011;18952;52.516;13.460;2022-08-19T04:24:04;25.30;;;22.98;;
32501;SDS011;18952;52.516;13.460;2022-08-19T04:26:33;26.95;;;24.13;;
32501;SDS011;18952;52.516;13.460;2022-08-19T04:29:03;27.35;;;24.60;;
32501;SDS011;18952;52.516;13.460;2022-08-19T04:31:37;30.55;;;27.48;;
32501;SDS011;18952;52.516;13.460;2022-08-19T04:34:06;27.05;;;24.55;;
32501;SDS011;18952;52.516;13.460;2022-08-19T04:36:36;25.10;;;22.85;;
32501;SDS011;18952;52.516;13.460;2022-08-19T04:39:05;24.40;;;21.95;;
32501;SDS011;18952;52.516;13.460;2022-08-19T04:41:36;24.45;;;22.13;;
32501;SDS011;18952;52.516;13.460;2022-08-19T04:44:03;23.55;;;21.23;;
32501;SDS011;18952;52.516;13.460;2022-08-19T04:46:30;31.65;;;28.63;;
32501;SDS011;18952;52.516;13.460;2022-08-19T04:49:16;23.35;;;21.10;;
32501;SDS011;18952;52.516;13.460;2022-08-19T04:51:45;23.63;;;21.30;;
32501;SDS011;18952;52.516;13.460;2022-08-19T04:54:13;22.17;;;20.08;;
32501;SDS011;18952;52.516;13.460;2022-08-19T04:56:56;22.05;;;20.15;;
32501;SDS011;18952;52.516;13.460;2022-08-19T04:59:22;23.15;;;21.00;;
32501;SDS011;18952;52.516;13.460;2022-08-19T05:01:49;23.05;;;20.75;;
32501;SDS011;18952;52.516;13.460;2022-08-19T05:04:19;23.40;;;21.08;;
32501;SDS011;18952;52.516;13.460;2022-08-19T05:06:47;22.55;;;20.45;;
32501;SDS011;18952;52.516;13.460;2022-08-19T05:09:15;21.63;;;19.52;;
32501;SDS011;18952;52.516;13.460;2022-08-19T05:11:42;23.17;;;21.00;;
32501;SDS011;18952;52.516;13.460;2022-08-19T05:14:10;22.92;;;20.63;;
32501;SDS011;18952;52.516;13.460;2022-08-19T05:16:37;22.58;;;20.67;;
32501;SDS011;18952;52.516;13.460;2022-08-19T05:19:04;24.13;;;21.80;;
32501;SDS011;18952;52.516;13.460;2022-08-19T05:21:31;23.10;;;20.63;;
32501;SDS011;18952;52.516;13.460;2022-08-19T05:23:58;22.73;;;20.65;;
32501;SDS011;18952;52.516;13.460;2022-08-19T05:26:25;22.98;;;20.73;;
32501;SDS011;18952;52.516;13.460;2022-08-19T05:28:52;21.23;;;19.35;;
32501;SDS011;18952;52.516;13.460;2022-08-19T05:31:20;20.90;;;18.90;;
32501;SDS011;18952;52.516;13.460;2022-08-19T05:33:47;21.55;;;19.20;;
32501;SDS011;18952;52.516;13.460;2022-08-19T05:36:14;21.77;;;19.65;;
32501;SDS011;18952;52.516;13.460;2022-08-19T05:38:41;21.60;;;19.60;;
32501;SDS011;18952;52.516;13.460;2022-08-19T05:41:08;21.73;;;19.52;;
32501;SDS011;18952;52.516;13.460;2022-08-19T05:43:36;20.27;;;18.48;;
32501;SDS011;18952;52.516;13.460;2022-08-19T05:46:03;20.33;;;18.23;;
32501;SDS011;18952;52.516;13.460;2022-08-19T05:48:32;19.45;;;17.70;;
32501;SDS011;18952;52.516;13.460;2022-08-19T05:51:03;19.58;;;17.58;;
32501;SDS011;18952;52.516;13.460;2022-08-19T05:53:32;19.80;;;17.83;;
32501;SDS011;18952;52.516;13.460;2022-08-19T05:56:06;20.77;;;18.65;;
32501;SDS011;18952;52.516;13.460;2022-08-19T05:58:35;21.67;;;19.55;;
32501;SDS011;18952;52.516;13.460;2022-08-19T06:01:03;21.42;;;19.33;;
32501;SDS011;18952;52.516;13.460;2022-08-19T06:03:36;20.25;;;18.20;;
32501;SDS011;18952;52.516;13.460;2022-08-19T06:06:04;19.88;;;17.98;;
32501;SDS011;18952;52.516;13.460;2022-08-19T06:08:31;19.67;;;17.77;;
32501;SDS011;18952;52.516;13.460;2022-08-19T06:11:11;20.52;;;18.20;;
32501;SDS011;18952;52.516;13.460;2022-08-19T06:13:40;20.52;;;18.27;;
32501;SDS011;18952;52.516;13.460;2022-08-19T06:16:07;20.33;;;18.42;;
32501;SDS011;18952;52.516;13.460;2022-08-19T06:18:34;20.23;;;18.27;;
32501;SDS011;18952;52.516;13.460;2022-08-19T06:21:01;21.08;;;18.90;;
32501;SDS011;18952;52.516;13.460;2022-08-19T06:23:27;20.10;;;18.05;;
32501;SDS011;18952;52.516;13.460;2022-08-19T06:25:54;20.23;;;18.42;;
32501;SDS011;18952;52.516;13.460;2022-08-19T06:28:21;20.08;;;18.25;;
32501;SDS011;18952;52.516;13.460;2022-08-19T06:30:48;21.08;;;19.08;;
32501;SDS011;18952;52.516;13.460;2022-08-19T06:33:15;20.08;;;18.13;;
32501;SDS011;18952;52.516;13.460;2022-08-19T06:35:43;23.55;;;18.38;;
32501;SDS011;18952;52.516;13.460;2022-08-19T06:38:10;18.98;;;17.10;;
32501;SDS011;18952;52.516;13.460;2022-08-19T06:40:37;19.50;;;17.33;;
32501;SDS011;18952;52.516;13.460;2022-08-19T06:43:04;20.27;;;18.38;;
32501;SDS011;18952;52.516;13.460;2022-08-19T06:45:36;19.40;;;17.45;;
32501;SDS011;18952;52.516;13.460;2022-08-19T06:48:04;19.73;;;18.02;;
32501;SDS011;18952;52.516;13.460;2022-08-19T06:50:32;18.33;;;16.35;;
32501;SDS011;18952;52.516;13.460;2022-08-19T06:53:01;20.67;;;18.02;;
32501;SDS011;18952;52.516;13.460;2022-08-19T06:55:29;18.85;;;17.02;;
32501;SDS011;18952;52.516;13.460;2022-08-19T06:58:01;19.90;;;17.80;;
32501;SDS011;18952;52.516;13.460;2022-08-19T07:00:29;18.98;;;17.15;;
32501;SDS011;18952;52.516;13.460;2022-08-19T07:02:56;20.00;;;18.05;;
32501;SDS011;18952;52.516;13.460;2022-08-19T07:05:29;20.88;;;18.98;;
32501;SDS011;18952;52.516;13.460;2022-08-19T07:07:58;20.55;;;18.20;;
32501;SDS011;18952;52.516;13.460;2022-08-19T07:10:30;19.33;;;17.42;;
32501;SDS011;18952;52.516;13.460;2022-08-19T07:12:56;20.35;;;17.92;;
32501;SDS011;18952;52.516;13.460;2022-08-19T07:15:23;19.73;;;17.65;;
32501;SDS011;18952;52.516;13.460;2022-08-19T07:17:50;20.30;;;18.33;;
32501;SDS011;18952;52.516;13.460;2022-08-19T07:20:18;20.27;;;18.25;;
32501;SDS011;18952;52.516;13.460;2022-08-19T07:22:45;20.25;;;17.83;;
32501;SDS011;18952;52.516;13.460;2022-08-19T07:25:11;20.67;;;18.58;;
32501;SDS011;18952;52.516;13.460;2022-08-19T07:27:38;20.55;;;18.50;;
32501;SDS011;18952;52.516;13.460;2022-08-19T07:30:06;20.83;;;18.67;;
32501;SDS011;18952;52.516;13.460;2022-08-19T07:32:37;21.45;;;19.25;;
32501;SDS011;18952;52.516;13.460;2022-08-19T07:35:04;20.38;;;18.38;;
32501;SDS011;18952;52.516;13.460;2022-08-19T07:37:32;20.33;;;18.23;;
32501;SDS011;18952;52.516;13.460;2022-08-19T07:39:59;19.77;;;17.73;;
32501;SDS011;18952;52.516;13.460;2022-08-19T07:42:27;21.95;;;19.73;;
32501;SDS011;18952;52.516;13.460;2022-08-19T07:44:54;20.80;;;18.88;;
32501;SDS011;18952;52.516;13.460;2022-08-19T07:47:21;21.35;;;19.13;;
32501;SDS011;18952;52.516;13.460;2022-08-19T07:50:08;22.33;;;19.90;;
32501;SDS011;18952;52.516;13.460;2022-08-19T07:52:36;21.38;;;19.40;;
32501;SDS011;18952;52.516;13.460;2022-08-19T07:55:04;21.52;;;19.45;;
32501;SDS011;18952;52.516;13.460;2022-08-19T07:57:52;21.85;;;19.83;;
32501;SDS011;18952;52.516;13.460;2022-08-19T08:00:19;22.40;;;20.23;;
32501;SDS011;18952;52.516;13.460;2022-08-19T08:02:49;22.50;;;20.23;;
32501;SDS011;18952;52.516;13.460;2022-08-19T08:05:21;23.23;;;20.65;;
32501;SDS011;18952;52.516;13.460;2022-08-19T08:07:48;22.48;;;20.20;;
32501;SDS011;18952;52.516;13.460;2022-08-19T08:10:15;21.90;;;19.80;;
32501;SDS011;18952;52.516;13.460;2022-08-19T08:12:46;22.42;;;20.23;;
32501;SDS011;18952;52.516;13.460;2022-08-19T08:15:34;23.55;;;21.30;;
32501;SDS011;18952;52.516;13.460;2022-08-19T08:18:07;23.17;;;20.80;;
32501;SDS011;18952;52.516;13.460;2022-08-19T08:20:34;22.00;;;19.60;;
32501;SDS011;18952;52.516;13.460;2022-08-19T08:23:01;21.73;;;19.63;;
32501;SDS011;18952;52.516;13.460;2022-08-19T08:25:28;22.02;;;19.70;;
32501;SDS011;18952;52.516;13.460;2022-08-19T08:27:59;23.40;;;19.67;;
32501;SDS011;18952;52.516;13.460;2022-08-19T08:30:27;22.17;;;18.95;;
32501;SDS011;18952;52.516;13.460;2022-08-19T08:32:58;20.73;;;18.67;;
32501;SDS011;18952;52.516;13.460;2022-08-19T08:35:28;21.90;;;19.73;;
32501;SDS011;18952;52.516;13.460;2022-08-19T08:37:55;23.10;;;18.58;;
32501;SDS011;18952;52.516;13.460;2022-08-19T08:40:30;21.35;;;19.25;;
32501;SDS011;18952;52.516;13.460;2022-08-19T08:43:09;20.50;;;18.45;;
32501;SDS011;18952;52.516;13.460;2022-08-19T08:48:38;20.83;;;17.60;;
32501;SDS011;18952;52.516;13.460;2022-08-19T08:51:57;20.50;;;18.38;;
32501;SDS011;18952;52.516;13.460;2022-08-19T08:54:28;22.27;;;19.08;;
32501;SDS011;18952;52.516;13.460;2022-08-19T08:57:27;21.30;;;19.38;;
32501;SDS011;18952;52.516;13.460;2022-08-19T09:00:17;21.50;;;19.27;;
32501;SDS011;18952;52.516;13.460;2022-08-19T09:02:47;21.58;;;18.83;;
32501;SDS011;18952;52.516;13.460;2022-08-19T09:05:17;22.20;;;19.63;;
32501;SDS011;18952;52.516;13.460;2022-08-19T09:10:49;20.92;;;18.83;;
32501;SDS011;18952;52.516;13.460;2022-08-19T09:16:06;23.08;;;20.67;;
32501;SDS011;18952;52.516;13.460;2022-08-19T09:18:40;22.42;;;20.10;;
32501;SDS011;18952;52.516;13.460;2022-08-19T09:21:09;22.25;;;20.13;;
32501;SDS011;18952;52.516;13.460;2022-08-19T09:23:36;21.92;;;19.80;;
32501;SDS011;18952;52.516;13.460;2022-08-19T09:26:09;22.27;;;20.05;;
32501;SDS011;18952;52.516;13.460;2022-08-19T09:28:43;22.77;;;20.38;;
32501;SDS011;18952;52.516;13.460;2022-08-19T09:31:15;22.17;;;20.08;;
32501;SDS011;18952;52.516;13.460;2022-08-19T09:33:45;21.63;;;19.63;;
32501;SDS011;18952;52.516;13.460;2022-08-19T09:36:15;22.67;;;20.25;;
32501;SDS011;18952;52.516;13.460;2022-08-19T09:38:58;20.98;;;19.08;;
32501;SDS011;18952;52.516;13.460;2022-08-19T09:41:27;21.38;;;19.38;;
32501;SDS011;18952;52.516;13.460;2022-08-19T09:43:55;20.13;;;18.33;;
32501;SDS011;18952;52.516;13.460;2022-08-19T09:46:25;22.30;;;18.58;;
32501;SDS011;18952;52.516;13.460;2022-08-19T09:48:56;20.35;;;18.45;;
32501;SDS011;18952;52.516;13.460;2022-08-19T09:51:31;21.13;;;19.00;;
32501;SDS011;18952;52.516;13.460;2022-08-19T09:54:01;20.58;;;18.35;;
32501;SDS011;18952;52.516;13.460;2022-08-19T09:56:30;20.42;;;18.50;;
32501;SDS011;18952;52.516;13.460;2022-08-19T09:58:59;20.17;;;18.08;;
32501;SDS011;18952;52.516;13.460;2022-08-19T10:01:28;21.17;;;17.50;;
32501;SDS011;18952;52.516;13.460;2022-08-19T10:03:57;19.70;;;17.75;;
32501;SDS011;18952;52.516;13.460;2022-08-19T10:06:26;20.75;;;18.55;;
32501;SDS011;18952;52.516;13.460;2022-08-19T10:09:12;19.13;;;17.27;;
32501;SDS011;18952;52.516;13.460;2022-08-19T10:11:41;18.92;;;17.08;;
32501;SDS011;18952;52.516;13.460;2022-08-19T10:14:19;20.27;;;18.17;;
32501;SDS011;18952;52.516;13.460;2022-08-19T10:16:46;21.85;;;17.10;;
32501;SDS011;18952;52.516;13.460;2022-08-19T10:19:13;19.85;;;17.58;;
32501;SDS011;18952;52.516;13.460;2022-08-19T10:21:51;19.33;;;17.42;;
32501;SDS011;18952;52.516;13.460;2022-08-19T10:24:18;18.85;;;17.05;;
32501;SDS011;18952;52.516;13.460;2022-08-19T10:26:45;18.58;;;16.75;;
32501;SDS011;18952;52.516;13.460;2022-08-19T10:29:12;19.02;;;17.27;;
32501;SDS011;18952;52.516;13.460;2022-08-19T10:31:58;19.33;;;17.02;;
32501;SDS011;18952;52.516;13.460;2022-08-19T10:34:36;18.85;;;16.95;;
32501;SDS011;18952;52.516;13.460;2022-08-19T10:37:14;19.67;;;16.15;;
32501;SDS011;18952;52.516;13.460;2022-08-19T10:39:49;18.75;;;16.80;;
32501;SDS011;18952;52.516;13.460;2022-08-19T10:42:16;18.17;;;16.52;;
32501;SDS011;18952;52.516;13.460;2022-08-19T10:44:43;18.10;;;16.25;;
32501;SDS011;18952;52.516;13.460;2022-08-19T10:47:10;17.75;;;16.02;;
32501;SDS011;18952;52.516;13.460;2022-08-19T10:49:51;17.75;;;15.90;;
32501;SDS011;18952;52.516;13.460;2022-08-19T10:52:20;17.92;;;16.23;;
32501;SDS011;18952;52.516;13.460;2022-08-19T10:54:57;17.40;;;15.43;;
32501;SDS011;18952;52.516;13.460;2022-08-19T10:57:30;17.75;;;16.08;;
32501;SDS011;18952;52.516;13.460;2022-08-19T11:00:17;17.80;;;15.85;;
32501;SDS011;18952;52.516;13.460;2022-08-19T11:02:45;18.33;;;16.55;;
32501;SDS011;18952;52.516;13.460;2022-08-19T11:05:12;17.27;;;15.55;;
32501;SDS011;18952;52.516;13.460;2022-08-19T11:07:39;17.58;;;15.93;;
32501;SDS011;18952;52.516;13.460;2022-08-19T11:10:06;18.40;;;16.13;;
32501;SDS011;18952;52.516;13.460;2022-08-19T11:12:39;17.55;;;15.23;;
32501;SDS011;18952;52.516;13.460;2022-08-19T11:15:07;17.98;;;16.17;;
32501;SDS011;18952;52.516;13.460;2022-08-19T11:17:35;19.45;;;17.33;;
32501;SDS011;18952;52.516;13.460;2022-08-19T11:20:02;19.10;;;16.33;;
32501;SDS011;18952;52.516;13.460;2022-08-19T11:22:29;18.35;;;16.42;;
32501;SDS011;18952;52.516;13.460;2022-08-19T11:25:06;17.80;;;16.05;;
32501;SDS011;18952;52.516;13.460;2022-08-19T11:27:36;17.45;;;15.52;;
32501;SDS011;18952;52.516;13.460;2022-08-19T11:30:07;18.65;;;15.80;;
32501;SDS011;18952;52.516;13.460;2022-08-19T11:32:39;16.70;;;14.95;;
32501;SDS011;18952;52.516;13.460;2022-08-19T11:35:12;17.33;;;15.50;;
32501;SDS011;18952;52.516;13.460;2022-08-19T11:37:39;18.13;;;16.40;;
32501;SDS011;18952;52.516;13.460;2022-08-19T11:40:06;18.13;;;16.13;;
32501;SDS011;18952;52.516;13.460;2022-08-19T11:42:33;18.23;;;16.38;;
32501;SDS011;18952;52.516;13.460;2022-08-19T11:45:00;17.50;;;15.93;;
32501;SDS011;18952;52.516;13.460;2022-08-19T11:47:27;17.50;;;15.73;;
32501;SDS011;18952;52.516;13.460;2022-08-19T11:49:53;18.52;;;16.13;;
32501;SDS011;18952;52.516;13.460;2022-08-19T11:52:20;18.60;;;15.27;;
32501;SDS011;18952;52.516;13.460;2022-08-19T11:54:47;16.60;;;14.88;;
32501;SDS011;18952;52.516;13.460;2022-08-19T11:57:14;15.30;;;13.90;;
32501;SDS011;18952;52.516;13.460;2022-08-19T11:59:41;17.08;;;14.23;;
32501;SDS011;18952;52.516;13.460;2022-08-19T12:02:07;15.25;;;13.65;;
32501;SDS011;18952;52.516;13.460;2022-08-19T12:04:34;15.15;;;13.75;;
32501;SDS011;18952;52.516;13.460;2022-08-19T12:07:01;14.35;;;13.15;;
32501;SDS011;18952;52.516;13.460;2022-08-19T12:09:28;14.80;;;13.48;;
32501;SDS011;18952;52.516;13.460;2022-08-19T12:11:56;17.02;;;12.70;;
32501;SDS011;18952;52.516;13.460;2022-08-19T12:14:23;14.40;;;12.90;;
32501;SDS011;18952;52.516;13.460;2022-08-19T12:16:49;15.60;;;12.90;;
32501;SDS011;18952;52.516;13.460;2022-08-19T12:19:18;15.93;;;13.20;;
32501;SDS011;18952;52.516;13.460;2022-08-19T12:21:48;13.90;;;12.50;;
32501;SDS011;18952;52.516;13.460;2022-08-19T12:24:15;14.10;;;12.68;;
32501;SDS011;18952;52.516;13.460;2022-08-19T12:26:42;13.52;;;11.90;;
32501;SDS011;18952;52.516;13.460;2022-08-19T12:29:19;13.55;;;12.07;;
32501;SDS011;18952;52.516;13.460;2022-08-19T12:31:49;14.93;;;11.38;;
32501;SDS011;18952;52.516;13.460;2022-08-19T12:34:24;13.13;;;11.83;;
32501;SDS011;18952;52.516;13.460;2022-08-19T12:36:50;12.43;;;11.23;;
32501;SDS011;18952;52.516;13.460;2022-08-19T12:39:17;13.35;;;11.00;;
32501;SDS011;18952;52.516;13.460;2022-08-19T12:41:44;13.90;;;10.73;;
32501;SDS011;18952;52.516;13.460;2022-08-19T12:44:20;11.73;;;10.45;;
32501;SDS011;18952;52.516;13.460;2022-08-19T12:47:00;11.73;;;10.52;;
32501;SDS011;18952;52.516;13.460;2022-08-19T12:49:31;11.45;;;9.98;;
32501;SDS011;18952;52.516;13.460;2022-08-19T12:52:17;13.38;;;10.55;;
32501;SDS011;18952;52.516;13.460;2022-08-19T12:54:48;10.85;;;9.75;;
32501;SDS011;18952;52.516;13.460;2022-08-19T12:57:20;12.55;;;10.20;;
32501;SDS011;18952;52.516;13.460;2022-08-19T12:59:59;12.02;;;10.35;;
32501;SDS011;18952;52.516;13.460;2022-08-19T13:02:31;11.10;;;9.88;;
32501;SDS011;18952;52.516;13.460;2022-08-19T13:05:04;11.18;;;10.00;;
32501;SDS011;18952;52.516;13.460;2022-08-19T13:07:32;11.85;;;10.25;;
32501;SDS011;18952;52.516;13.460;2022-08-19T13:09:59;13.13;;;10.52;;
32501;SDS011;18952;52.516;13.460;2022-08-19T13:12:27;12.32;;;11.02;;
32501;SDS011;18952;52.516;13.460;2022-08-19T13:14:54;12.13;;;10.95;;
32501;SDS011;18952;52.516;13.460;2022-08-19T13:17:21;12.13;;;10.80;;
32501;SDS011;18952;52.516;13.460;2022-08-19T13:19:48;12.07;;;10.88;;
32501;SDS011;18952;52.516;13.460;2022-08-19T13:22:16;12.45;;;11.15;;
32501;SDS011;18952;52.516;13.460;2022-08-19T13:24:43;13.63;;;11.15;;
32501;SDS011;18952;52.516;13.460;2022-08-19T13:27:13;14.38;;;11.85;;
32501;SDS011;18952;52.516;13.460;2022-08-19T13:29:40;12.90;;;11.60;;
32501;SDS011;18952;52.516;13.460;2022-08-19T13:32:08;13.45;;;12.02;;
32501;SDS011;18952;52.516;13.460;2022-08-19T13:34:38;12.50;;;11.15;;
32501;SDS011;18952;52.516;13.460;2022-08-19T13:37:05;13.13;;;11.80;;
32501;SDS011;18952;52.516;13.460;2022-08-19T13:39:32;12.68;;;11.38;;
32501;SDS011;18952;52.516;13.460;2022-08-19T13:41:59;14.63;;;11.52;;
32501;SDS011;18952;52.516;13.460;2022-08-19T13:44:27;12.52;;;11.38;;
32501;SDS011;18952;52.516;13.460;2022-08-19T13:46:54;12.60;;;11.50;;
32501;SDS011;18952;52.516;13.460;2022-08-19T13:49:27;13.40;;;11.90;;
32501;SDS011;18952;52.516;13.460;2022-08-19T13:51:54;12.65;;;11.48;;
32501;SDS011;18952;52.516;13.460;2022-08-19T13:54:21;13.23;;;11.95;;
32501;SDS011;18952;52.516;13.460;2022-08-19T13:56:48;15.05;;;11.82;;
32501;SDS011;18952;52.516;13.460;2022-08-19T13:59:15;12.35;;;11.25;;
32501;SDS011;18952;52.516;13.460;2022-08-19T14:01:41;12.50;;;11.40;;
32501;SDS011;18952;52.516;13.460;2022-08-19T14:04:08;12.52;;;11.23;;
32501;SDS011;18952;52.516;13.460;2022-08-19T14:06:35;13.15;;;11.85;;
32501;SDS011;18952;52.516;13.460;2022-08-19T14:09:02;13.40;;;12.00;;
32501;SDS011;18952;52.516;13.460;2022-08-19T14:11:29;13.52;;;11.70;;
32501;SDS011;18952;52.516;13.460;2022-08-19T14:13:56;12.15;;;11.05;;
32501;SDS011;18952;52.516;13.460;2022-08-19T14:16:22;15.05;;;12.25;;
32501;SDS011;18952;52.516;13.460;2022-08-19T14:18:49;12.98;;;11.43;;
32501;SDS011;18952;52.516;13.460;2022-08-19T14:21:17;13.57;;;12.18;;
32501;SDS011;18952;52.516;13.460;2022-08-19T14:23:47;13.30;;;12.00;;
32501;SDS011;18952;52.516;13.460;2022-08-19T14:26:15;13.15;;;11.75;;
32501;SDS011;18952;52.516;13.460;2022-08-19T14:28:43;13.57;;;10.85;;
32501;SDS011;18952;52.516;13.460;2022-08-19T14:31:11;13.05;;;11.75;;
32501;SDS011;18952;52.516;13.460;2022-08-19T14:33:40;14.85;;;11.80;;